Time;durP1;ratioP1;P1;durP2;ratioP2;P2;SDS_P1;SDS_P2;PMS_P1;PMS_P2;Temp;Humidity;BMP_temperature;BMP_pressure;BME280_temperature;BME280_humidity;BME280_pressure;Samples;Min_cycle;Max_cycle;Signal;HPM_P1;HPM_P2
2022/08/24 00:02:17;;;;;;;0.10;0.10;;;;;;;;;;5052990;28;20025;-74
2022/08/24 00:04:42;;;;;;;0.82;0.82;;;;;;;;;;5053115;28;20029;-73
2022/08/24 00:07:08;;;;;;;1.17;1.00;;;;;;;;;;5053161;28;20036;-72
2022/08/24 00:09:34;;;;;;;0.22;0.22;;;;;;;;;;5034955;28;20029;-74
2022/08/24 00:11:59;;;;;;;0.20;0.20;;;;;;;;;;5053923;28;20384;-73
2022/08/24 00:14:25;;;;;;;0.20;0.20;;;;;;;;;;5057066;28;20029;-72
2022/08/24 00:16:51;;;;;;;0.20;0.20;;;;;;;;;;5057315;28;20021;-71
2022/08/24 00:19:16;;;;;;;0.30;0.30;;;;;;;;;;5055295;28;20063;-73
2022/08/24 00:21:42;;;;;;;0.20;0.20;;;;;;;;;;5056619;28;20377;-73
2022/08/24 00:24:08;;;;;;;0.30;0.30;;;;;;;;;;5038093;28;20025;-72
2022/08/24 00:26:34;;;;;;;0.20;0.20;;;;;;;;;;5056518;28;20419;-71
2022/08/24 00:28:59;;;;;;;1.20;1.10;;;;;;;;;;5057081;28;20021;-72
2022/08/24 00:31:25;;;;;;;0.40;0.40;;;;;;;;;;5056854;28;20123;-73
2022/08/24 00:33:50;;;;;;;0.40;0.40;;;;;;;;;;5056489;28;20067;-72
2022/08/24 00:36:16;;;;;;;0.20;0.20;;;;;;;;;;5038793;28;20025;-72
2022/08/24 00:38:42;;;;;;;0.30;0.30;;;;;;;;;;5038650;28;20383;-73
2022/08/24 00:41:07;;;;;;;0.20;0.20;;;;;;;;;;5056751;28;20407;-72
2022/08/24 00:43:33;;;;;;;0.30;0.30;;;;;;;;;;5056776;28;20434;-71
2022/08/24 00:46:19;;;;;;;0.30;0.30;;;;;;;;;;5056187;28;20025;-72
2022/08/24 00:48:48;;;;;;;0.20;0.20;;;;;;;;;;5056590;28;20406;-71
2022/08/24 00:51:14;;;;;;;0.20;0.20;;;;;;;;;;5056434;28;20112;-73
2022/08/24 00:53:48;;;;;;;0.20;0.20;;;;;;;;;;5038234;28;20081;-73
2022/08/24 00:56:16;;;;;;;0.30;0.30;;;;;;;;;;5038790;28;20036;-72
2022/08/24 00:58:50;;;;;;;0.20;0.20;;;;;;;;;;5037491;28;20036;-73
2022/08/24 01:01:16;;;;;;;0.20;0.20;;;;;;;;;;5037916;28;20037;-71
2022/08/24 01:03:42;;;;;;;0.50;0.50;;;;;;;;;;5038315;28;20033;-71
2022/08/24 01:06:08;;;;;;;0.30;0.30;;;;;;;;;;5056156;28;20025;-74
2022/08/24 01:08:34;;;;;;;0.22;0.22;;;;;;;;;;5055271;28;20442;-75
2022/08/24 01:11:05;;;;;;;0.43;0.43;;;;;;;;;;5056427;28;20021;-74
2022/08/24 01:13:31;;;;;;;0.17;0.17;;;;;;;;;;5056045;28;20043;-74
2022/08/24 01:15:59;;;;;;;0.35;0.35;;;;;;;;;;5056593;28;20494;-74
2022/08/24 01:21:18;;;;;;;0.20;0.20;;;;;;;;;;5037971;28;20172;-74
2022/08/24 01:23:54;;;;;;;0.20;0.20;;;;;;;;;;5055128;28;20040;-73
2022/08/24 01:26:24;;;;;;;0.20;0.20;;;;;;;;;;5056002;28;20029;-74
2022/08/24 01:28:54;;;;;;;0.30;0.30;;;;;;;;;;5037010;28;20472;-73
2022/08/24 01:31:23;;;;;;;0.20;0.20;;;;;;;;;;5037380;28;20380;-72
2022/08/24 01:33:50;;;;;;;0.20;0.20;;;;;;;;;;5038227;28;20033;-73
2022/08/24 01:36:39;;;;;;;0.20;0.20;;;;;;;;;;5037893;28;20021;-75
2022/08/24 01:39:16;;;;;;;0.20;0.20;;;;;;;;;;5045118;28;20068;-75
2022/08/24 01:41:42;;;;;;;0.25;0.25;;;;;;;;;;5055232;28;20049;-74
2022/08/24 01:44:08;;;;;;;0.50;0.43;;;;;;;;;;5037617;28;20027;-72
2022/08/24 01:46:34;;;;;;;0.20;0.20;;;;;;;;;;5037069;28;20539;-74
2022/08/24 01:49:00;;;;;;;0.20;0.20;;;;;;;;;;5055583;28;20040;-74
2022/08/24 01:51:31;;;;;;;0.20;0.20;;;;;;;;;;5055416;28;20107;-75
2022/08/24 01:54:01;;;;;;;0.20;0.20;;;;;;;;;;5037287;28;20029;-73
2022/08/24 01:56:29;;;;;;;0.20;0.20;;;;;;;;;;5055114;28;20047;-72
2022/08/24 01:58:56;;;;;;;0.22;0.22;;;;;;;;;;5037344;28;20362;-73
2022/08/24 02:01:22;;;;;;;0.20;0.20;;;;;;;;;;5037221;28;20398;-74
2022/08/24 02:03:48;;;;;;;0.35;0.35;;;;;;;;;;5055350;28;20032;-73
2022/08/24 02:06:15;;;;;;;0.20;0.20;;;;;;;;;;5054736;28;20090;-73
2022/08/24 02:08:41;;;;;;;0.43;0.43;;;;;;;;;;5037079;28;20033;-73
2022/08/24 02:11:07;;;;;;;0.20;0.20;;;;;;;;;;5036481;28;20033;-74
2022/08/24 02:13:34;;;;;;;0.20;0.20;;;;;;;;;;5037260;28;20082;-72
2022/08/24 02:16:00;;;;;;;0.60;0.60;;;;;;;;;;5054735;28;20017;-72
2022/08/24 02:18:29;;;;;;;0.30;0.30;;;;;;;;;;5054678;28;20428;-72
2022/08/24 02:20:54;;;;;;;0.40;0.40;;;;;;;;;;5055006;28;20148;-72
2022/08/24 02:23:21;;;;;;;0.25;0.25;;;;;;;;;;5054780;28;20051;-72
2022/08/24 02:25:47;;;;;;;0.30;0.30;;;;;;;;;;5054185;28;20049;-72
2022/08/24 02:28:13;;;;;;;0.20;0.20;;;;;;;;;;5020620;28;20032;-72
2022/08/24 02:30:41;;;;;;;0.20;0.20;;;;;;;;;;5054868;28;20021;-71
2022/08/24 02:33:07;;;;;;;1.75;0.75;;;;;;;;;;5054599;28;20039;-72
2022/08/24 02:35:33;;;;;;;1.33;1.23;;;;;;;;;;5054672;28;20021;-72
2022/08/24 02:38:00;;;;;;;0.20;0.20;;;;;;;;;;5047438;28;20033;-72
2022/08/24 02:40:27;;;;;;;0.20;0.20;;;;;;;;;;5039699;28;20053;-73
2022/08/24 02:42:54;;;;;;;0.20;0.20;;;;;;;;;;5034872;28;20046;-73
2022/08/24 02:45:20;;;;;;;0.25;0.25;;;;;;;;;;5016871;28;20362;-72
2022/08/24 02:47:46;;;;;;;0.30;0.30;;;;;;;;;;5033104;28;20036;-73
2022/08/24 02:50:14;;;;;;;0.20;0.20;;;;;;;;;;5034430;28;20112;-73
2022/08/24 02:52:41;;;;;;;0.20;0.20;;;;;;;;;;5034191;28;20034;-73
2022/08/24 02:55:09;;;;;;;0.28;0.28;;;;;;;;;;5032490;28;20495;-74
2022/08/24 02:57:35;;;;;;;;;;;;;;;;;;5016922;28;20032;-73
2022/08/24 03:00:01;;;;;;;0.20;0.20;;;;;;;;;;5028158;28;20000;-72
2022/08/24 03:02:28;;;;;;;0.82;0.50;;;;;;;;;;5021493;28;20038;-73
2022/08/24 03:04:53;;;;;;;0.30;0.30;;;;;;;;;;4990999;28;20469;-73
2022/08/24 03:07:19;;;;;;;0.20;0.20;;;;;;;;;;4991054;28;20077;-74
2022/08/24 03:09:45;;;;;;;0.22;0.22;;;;;;;;;;5022458;28;20029;-71
2022/08/24 03:12:10;;;;;;;0.60;0.50;;;;;;;;;;5030044;28;20025;-72
2022/08/24 03:14:36;;;;;;;0.30;0.30;;;;;;;;;;5028217;28;20030;-72
2022/08/24 03:17:02;;;;;;;0.20;0.20;;;;;;;;;;5027492;28;20041;-72
2022/08/24 03:19:28;;;;;;;1.80;1.70;;;;;;;;;;5026929;28;20033;-73
2022/08/24 03:21:54;;;;;;;0.20;0.20;;;;;;;;;;5029032;28;20136;-72
2022/08/24 03:24:20;;;;;;;0.30;0.30;;;;;;;;;;5030031;28;20104;-73
2022/08/24 03:26:46;;;;;;;0.20;0.20;;;;;;;;;;5028481;28;20454;-73
2022/08/24 03:29:12;;;;;;;0.60;0.60;;;;;;;;;;5028529;28;20025;-73
2022/08/24 03:31:38;;;;;;;0.20;0.20;;;;;;;;;;5029978;28;20369;-73
2022/08/24 03:34:04;;;;;;;0.30;0.30;;;;;;;;;;5029830;28;20040;-73
2022/08/24 03:36:30;;;;;;;0.50;0.50;;;;;;;;;;5029346;28;20029;-75
2022/08/24 03:38:56;;;;;;;0.30;0.30;;;;;;;;;;5030235;28;20029;-73
2022/08/24 03:41:22;;;;;;;0.20;0.20;;;;;;;;;;5028294;28;20056;-73
2022/08/24 03:43:48;;;;;;;0.15;0.15;;;;;;;;;;5029825;28;20161;-73
2022/08/24 03:46:21;;;;;;;0.20;0.20;;;;;;;;;;5029604;28;20087;-73
2022/08/24 03:48:47;;;;;;;0.20;0.20;;;;;;;;;;5029172;28;20032;-73
2022/08/24 03:51:16;;;;;;;0.35;0.35;;;;;;;;;;5029612;28;20073;-73
2022/08/24 03:53:42;;;;;;;0.20;0.20;;;;;;;;;;5011678;28;20036;-72
2022/08/24 03:56:08;;;;;;;0.20;0.20;;;;;;;;;;5029524;28;20111;-73
2022/08/24 03:58:35;;;;;;;0.30;0.30;;;;;;;;;;5029302;28;20033;-73
2022/08/24 04:01:02;;;;;;;0.20;0.20;;;;;;;;;;5028107;28;20044;-71
2022/08/24 04:03:28;;;;;;;0.20;0.20;;;;;;;;;;5029407;28;20029;-73
2022/08/24 04:05:54;;;;;;;0.22;0.22;;;;;;;;;;5028877;28;20148;-75
2022/08/24 04:08:19;;;;;;;0.30;0.30;;;;;;;;;;5027585;28;20524;-83
2022/08/24 04:10:45;;;;;;;0.20;0.20;;;;;;;;;;5016467;28;20062;-75
2022/08/24 04:13:11;;;;;;;0.20;0.20;;;;;;;;;;4992194;28;20033;-74
2022/08/24 04:15:41;;;;;;;0.20;0.20;;;;;;;;;;4992269;28;20477;-75
2022/08/24 04:18:08;;;;;;;0.28;0.28;;;;;;;;;;5008326;28;20823;-73
2022/08/24 04:20:37;;;;;;;0.10;0.10;;;;;;;;;;5007929;28;20033;-73
2022/08/24 04:23:03;;;;;;;0.40;0.40;;;;;;;;;;4992154;28;20026;-72
2022/08/24 04:25:29;;;;;;;0.50;0.50;;;;;;;;;;5022271;28;20515;-72
2022/08/24 04:27:56;;;;;;;0.30;0.30;;;;;;;;;;5008053;28;20045;-74
2022/08/24 04:30:21;;;;;;;0.20;0.20;;;;;;;;;;5009746;28;20022;-73
2022/08/24 04:33:11;;;;;;;0.20;0.20;;;;;;;;;;5008778;28;20065;-73
2022/08/24 04:35:42;;;;;;;0.20;0.20;;;;;;;;;;5018972;28;20030;-71
2022/08/24 04:38:10;;;;;;;0.20;0.20;;;;;;;;;;5026702;28;20481;-74
2022/08/24 04:40:38;;;;;;;0.30;0.30;;;;;;;;;;5026877;28;20088;-73
2022/08/24 04:43:04;;;;;;;0.30;0.30;;;;;;;;;;5027809;28;20041;-82
2022/08/24 04:45:31;;;;;;;0.30;0.30;;;;;;;;;;5021179;28;20109;-74
2022/08/24 04:47:57;;;;;;;0.20;0.20;;;;;;;;;;5009339;28;20477;-75
2022/08/24 04:50:25;;;;;;;0.20;0.20;;;;;;;;;;5009612;28;20477;-74
2022/08/24 04:52:51;;;;;;;0.68;0.68;;;;;;;;;;5009830;28;20030;-73
2022/08/24 04:55:17;;;;;;;0.57;0.57;;;;;;;;;;5028166;28;20120;-74
2022/08/24 04:57:44;;;;;;;0.20;0.20;;;;;;;;;;5028204;28;20064;-79
2022/08/24 05:00:10;;;;;;;0.20;0.20;;;;;;;;;;5030116;28;20469;-74
2022/08/24 05:02:40;;;;;;;1.17;0.63;;;;;;;;;;5011585;28;20033;-78
2022/08/24 05:05:08;;;;;;;0.20;0.20;;;;;;;;;;5012730;28;20488;-77
2022/08/24 05:07:34;;;;;;;0.20;0.20;;;;;;;;;;4994999;28;20370;-74
2022/08/24 05:10:02;;;;;;;0.30;0.30;;;;;;;;;;5012669;28;20116;-73
2022/08/24 05:12:28;;;;;;;0.20;0.20;;;;;;;;;;5026195;28;20034;-74
2022/08/24 05:15:00;;;;;;;0.20;0.20;;;;;;;;;;5010873;28;20022;-72
2022/08/24 05:17:28;;;;;;;0.20;0.20;;;;;;;;;;5011295;28;20420;-74
2022/08/24 05:19:53;;;;;;;0.20;0.20;;;;;;;;;;5011920;28;20477;-72
2022/08/24 05:22:20;;;;;;;0.40;0.40;;;;;;;;;;5012738;28;20026;-71
2022/08/24 05:24:51;;;;;;;0.28;0.28;;;;;;;;;;5010267;28;20029;-75
2022/08/24 05:27:17;;;;;;;0.17;0.17;;;;;;;;;;4991658;28;20038;-73
2022/08/24 05:29:44;;;;;;;0.17;0.17;;;;;;;;;;4992849;28;20501;-72
2022/08/24 05:32:10;;;;;;;0.25;0.25;;;;;;;;;;5020110;28;20021;-72
2022/08/24 05:34:36;;;;;;;0.20;0.20;;;;;;;;;;5031747;28;20025;-71
2022/08/24 05:37:03;;;;;;;0.20;0.20;;;;;;;;;;5013857;28;20030;-73
2022/08/24 05:39:49;;;;;;;0.20;0.20;;;;;;;;;;5017443;28;20057;-71
2022/08/24 05:42:15;;;;;;;0.20;0.20;;;;;;;;;;5050606;28;20025;-76
2022/08/24 05:44:46;;;;;;;0.93;0.85;;;;;;;;;;5051359;28;20362;-75
2022/08/24 05:47:14;;;;;;;0.20;0.20;;;;;;;;;;5034080;28;20036;-73
2022/08/24 05:49:41;;;;;;;0.20;0.20;;;;;;;;;;5033664;28;20037;-71
2022/08/24 05:52:09;;;;;;;0.20;0.20;;;;;;;;;;5033289;28;20031;-72
2022/08/24 05:54:36;;;;;;;0.25;0.25;;;;;;;;;;5032866;28;20104;-73
2022/08/24 05:57:03;;;;;;;0.20;0.20;;;;;;;;;;5033347;28;20033;-73
2022/08/24 05:59:33;;;;;;;0.20;0.20;;;;;;;;;;5051398;28;20472;-75
2022/08/24 06:02:07;;;;;;;0.10;0.10;;;;;;;;;;5033714;28;20033;-72
2022/08/24 06:04:33;;;;;;;1.17;1.17;;;;;;;;;;5051046;28;20092;-71
2022/08/24 06:06:58;;;;;;;0.20;0.20;;;;;;;;;;5051264;28;20033;-72
2022/08/24 06:09:24;;;;;;;0.90;0.85;;;;;;;;;;5030493;28;20028;-73
2022/08/24 06:11:51;;;;;;;0.20;0.20;;;;;;;;;;5023931;28;20033;-73
2022/08/24 06:14:17;;;;;;;0.20;0.20;;;;;;;;;;5038264;28;20486;-73
2022/08/24 06:17:02;;;;;;;0.20;0.20;;;;;;;;;;5052169;28;20032;-76
2022/08/24 06:19:28;;;;;;;0.20;0.20;;;;;;;;;;5070856;28;20464;-71
2022/08/24 06:21:54;;;;;;;0.30;0.30;;;;;;;;;;5069936;28;20036;-71
2022/08/24 06:27:19;;;;;;;2.05;1.63;;;;;;;;;;5052474;28;20024;-74
2022/08/24 06:27:20;;;;;;;0.22;0.22;;;;;;;;;;5052548;28;20093;-76
2022/08/24 06:29:46;;;;;;;0.20;0.20;;;;;;;;;;5037286;28;20050;-74
2022/08/24 06:32:29;;;;;;;0.40;0.40;;;;;;;;;;5051875;28;20036;-73
2022/08/24 06:34:55;;;;;;;1.45;1.05;;;;;;;;;;5052383;28;20032;-74
2022/08/24 06:37:25;;;;;;;0.30;0.30;;;;;;;;;;5064480;28;20009;-77
2022/08/24 06:39:54;;;;;;;0.20;0.20;;;;;;;;;;5049329;28;20500;-72
2022/08/24 06:42:23;;;;;;;0.30;0.30;;;;;;;;;;5033140;28;20036;-74
2022/08/24 06:44:49;;;;;;;0.20;0.20;;;;;;;;;;5033632;28;20033;-72
2022/08/24 06:47:20;;;;;;;0.38;0.38;;;;;;;;;;5035961;28;20036;-72
2022/08/24 06:49:51;;;;;;;0.20;0.20;;;;;;;;;;5036716;28;20086;-70
2022/08/24 06:52:16;;;;;;;0.20;0.20;;;;;;;;;;5034767;28;20033;-72
2022/08/24 06:54:42;;;;;;;0.30;0.30;;;;;;;;;;5015679;28;20472;-75
2022/08/24 06:57:08;;;;;;;0.20;0.20;;;;;;;;;;5050409;28;20448;-74
2022/08/24 06:59:34;;;;;;;0.40;0.40;;;;;;;;;;5031304;28;20438;-73
2022/08/24 07:02:00;;;;;;;0.22;0.22;;;;;;;;;;5023118;28;20475;-73
2022/08/24 07:04:31;;;;;;;0.30;0.30;;;;;;;;;;5039680;28;20025;-76
2022/08/24 07:07:22;;;;;;;0.20;0.20;;;;;;;;;;5044752;28;20033;-78
2022/08/24 07:09:48;;;;;;;0.25;0.25;;;;;;;;;;5047944;28;20621;-73
2022/08/24 07:12:13;;;;;;;0.30;0.30;;;;;;;;;;5042806;28;20044;-73
2022/08/24 07:14:39;;;;;;;0.30;0.30;;;;;;;;;;5047595;28;20021;-73
2022/08/24 07:17:05;;;;;;;0.40;0.40;;;;;;;;;;5050415;28;20071;-74
2022/08/24 07:19:31;;;;;;;0.40;0.40;;;;;;;;;;5032305;28;20032;-79
2022/08/24 07:21:58;;;;;;;0.30;0.30;;;;;;;;;;5030940;28;20057;-81
2022/08/24 07:24:25;;;;;;;0.25;0.25;;;;;;;;;;5036983;28;20391;-79
2022/08/24 07:26:51;;;;;;;0.30;0.30;;;;;;;;;;5045473;28;20029;-74
2022/08/24 07:29:18;;;;;;;0.30;0.30;;;;;;;;;;5013882;28;20029;-79
2022/08/24 07:31:47;;;;;;;0.47;0.47;;;;;;;;;;5030611;28;20039;-80
2022/08/24 07:34:25;;;;;;;;;;;;;;;;;;5017545;28;20123;-79
2022/08/24 07:36:52;;;;;;;0.30;0.30;;;;;;;;;;5049034;28;20333;-81
2022/08/24 07:39:18;;;;;;;0.50;0.50;;;;;;;;;;5031889;28;20047;-81
2022/08/24 07:41:44;;;;;;;0.40;0.40;;;;;;;;;;5030391;28;20061;-80
2022/08/24 07:44:12;;;;;;;0.30;0.30;;;;;;;;;;5047910;28;20123;-77
2022/08/24 07:46:38;;;;;;;0.30;0.30;;;;;;;;;;5047519;28;20376;-79
2022/08/24 07:49:04;;;;;;;0.30;0.30;;;;;;;;;;5047550;28;20029;-81
2022/08/24 07:51:31;;;;;;;0.30;0.30;;;;;;;;;;5029536;28;20048;-80
2022/08/24 07:53:56;;;;;;;0.40;0.40;;;;;;;;;;5046559;28;20461;-77
2022/08/24 07:56:28;;;;;;;0.45;0.45;;;;;;;;;;5030771;28;20029;-77
2022/08/24 07:58:55;;;;;;;0.40;0.40;;;;;;;;;;5031870;28;20029;-78
2022/08/24 08:01:21;;;;;;;0.30;0.30;;;;;;;;;;5043927;28;20586;-75
2022/08/24 08:03:47;;;;;;;0.50;0.50;;;;;;;;;;5069775;28;20043;-76
2022/08/24 08:06:13;;;;;;;0.40;0.40;;;;;;;;;;5051254;28;20036;-83
2022/08/24 08:08:40;;;;;;;0.38;0.38;;;;;;;;;;5032572;28;20028;-81
2022/08/24 08:11:06;;;;;;;0.40;0.40;;;;;;;;;;5047407;28;20056;-78
2022/08/24 08:13:32;;;;;;;0.40;0.40;;;;;;;;;;5047686;28;20033;-80
2022/08/24 08:15:59;;;;;;;0.30;0.30;;;;;;;;;;5047662;28;20478;-81
2022/08/24 08:18:25;;;;;;;0.47;0.47;;;;;;;;;;5047608;28;20365;-78
2022/08/24 08:20:52;;;;;;;0.40;0.40;;;;;;;;;;5029111;28;20121;-82
2022/08/24 08:26:07;;;;;;;0.40;0.40;;;;;;;;;;5029836;28;20039;-76
2022/08/24 08:29:02;;;;;;;0.70;0.70;;;;;;;;;;5029532;28;20835;-81
2022/08/24 08:31:30;;;;;;;0.50;0.50;;;;;;;;;;5030983;28;20044;-80
2022/08/24 08:33:56;;;;;;;0.40;0.40;;;;;;;;;;5052121;28;20036;-82
2022/08/24 08:36:22;;;;;;;0.30;0.30;;;;;;;;;;5052913;28;20120;-79
2022/08/24 08:38:49;;;;;;;1.75;0.77;;;;;;;;;;5035195;28;20029;-82
2022/08/24 08:41:18;;;;;;;0.40;0.40;;;;;;;;;;5052309;28;20049;-82
2022/08/24 08:44:32;;;;;;;0.30;0.30;;;;;;;;;;5034493;28;20033;-81
2022/08/24 08:47:07;;;;;;;0.40;0.40;;;;;;;;;;5018770;28;20115;-81
2022/08/24 08:49:39;;;;;;;0.50;0.50;;;;;;;;;;5053512;28;20036;-81
2022/08/24 08:52:11;;;;;;;0.32;0.32;;;;;;;;;;5052630;28;20025;-81
2022/08/24 08:54:41;;;;;;;0.40;0.40;;;;;;;;;;5033925;28;20537;-82
2022/08/24 08:57:26;;;;;;;0.60;0.60;;;;;;;;;;5052443;28;20017;-82
2022/08/24 09:00:09;;;;;;;0.40;0.40;;;;;;;;;;5052789;28;20033;-80
2022/08/24 09:02:51;;;;;;;0.30;0.30;;;;;;;;;;5034492;28;20499;-80
2022/08/24 09:05:47;;;;;;;0.63;0.50;;;;;;;;;;5052674;28;20044;-80
2022/08/24 09:08:13;;;;;;;0.40;0.40;;;;;;;;;;5031543;28;20392;-82
2022/08/24 09:10:53;;;;;;;0.40;0.40;;;;;;;;;;5034690;28;20115;-83
2022/08/24 09:13:38;;;;;;;0.40;0.40;;;;;;;;;;5017926;28;20105;-80
2022/08/24 09:16:14;;;;;;;0.40;0.40;;;;;;;;;;5052503;28;20028;-82
2022/08/24 09:19:02;;;;;;;0.40;0.40;;;;;;;;;;5031127;28;20037;-80
2022/08/24 09:21:38;;;;;;;0.40;0.40;;;;;;;;;;5051131;28;20049;-82
2022/08/24 09:24:20;;;;;;;0.40;0.40;;;;;;;;;;5016194;28;20040;-80
2022/08/24 09:26:52;;;;;;;0.40;0.40;;;;;;;;;;5032635;28;20471;-80
2022/08/24 09:29:35;;;;;;;0.40;0.40;;;;;;;;;;5028591;28;20047;-82
2022/08/24 09:32:10;;;;;;;0.50;0.50;;;;;;;;;;5022130;28;20021;-79
2022/08/24 09:34:35;;;;;;;0.40;0.40;;;;;;;;;;5032286;28;20041;-81
2022/08/24 09:37:19;;;;;;;0.40;0.40;;;;;;;;;;5053470;28;20024;-82
2022/08/24 09:40:20;;;;;;;0.40;0.40;;;;;;;;;;5069095;28;20108;-81
2022/08/24 09:43:04;;;;;;;0.55;0.55;;;;;;;;;;5068259;28;20032;-76
2022/08/24 09:45:32;;;;;;;0.40;0.40;;;;;;;;;;5051203;28;20068;-79
2022/08/24 09:48:16;;;;;;;0.40;0.40;;;;;;;;;;5069413;28;20023;-78
2022/08/24 09:51:02;;;;;;;1.10;1.00;;;;;;;;;;5068833;28;20069;-81
2022/08/24 09:53:33;;;;;;;0.30;0.30;;;;;;;;;;5068981;28;20021;-81
2022/08/24 09:56:15;;;;;;;0.40;0.40;;;;;;;;;;5051495;28;20418;-81
2022/08/24 09:58:49;;;;;;;0.40;0.40;;;;;;;;;;5069184;28;20115;-74
2022/08/24 10:01:23;;;;;;;0.32;0.32;;;;;;;;;;5069520;28;20498;-81
2022/08/24 10:04:03;;;;;;;0.40;0.40;;;;;;;;;;5051733;28;20033;-82
2022/08/24 10:06:47;;;;;;;0.50;0.50;;;;;;;;;;5068746;28;20029;-81
2022/08/24 10:09:13;;;;;;;0.50;0.50;;;;;;;;;;5069196;28;20032;-80
2022/08/24 10:11:53;;;;;;;0.30;0.30;;;;;;;;;;5069251;28;20033;-80
2022/08/24 10:14:22;;;;;;;0.47;0.47;;;;;;;;;;5069040;28;20033;-81
2022/08/24 10:17:01;;;;;;;0.52;0.52;;;;;;;;;;5069113;28;20029;-79
2022/08/24 10:19:27;;;;;;;0.60;0.60;;;;;;;;;;5034806;28;20472;-79
2022/08/24 10:22:09;;;;;;;0.30;0.30;;;;;;;;;;5068999;28;20082;-81
2022/08/24 10:24:53;;;;;;;0.60;0.60;;;;;;;;;;5050485;28;20036;-77
2022/08/24 10:27:25;;;;;;;2.92;0.80;;;;;;;;;;5050929;28;20028;-83
2022/08/24 10:30:06;;;;;;;0.50;0.50;;;;;;;;;;5067863;28;20975;-79
2022/08/24 10:32:38;;;;;;;0.50;0.50;;;;;;;;;;5068115;28;20024;-81
2022/08/24 10:35:07;;;;;;;0.40;0.40;;;;;;;;;;5068235;28;20037;-80
2022/08/24 10:37:32;;;;;;;1.00;1.00;;;;;;;;;;5050900;28;20103;-80
2022/08/24 10:40:00;;;;;;;5.60;0.65;;;;;;;;;;5050432;28;20148;-80
2022/08/24 10:45:32;;;;;;;0.50;0.50;;;;;;;;;;5068187;28;20028;-83
2022/08/24 10:48:12;;;;;;;0.45;0.45;;;;;;;;;;5033688;28;20025;-80
2022/08/24 10:50:38;;;;;;;0.50;0.50;;;;;;;;;;5049906;28;20229;-81
2022/08/24 10:53:22;;;;;;;0.80;0.80;;;;;;;;;;5067500;28;20531;-83
2022/08/24 10:56:08;;;;;;;0.35;0.35;;;;;;;;;;5049542;28;20029;-82
2022/08/24 10:58:36;;;;;;;0.60;0.60;;;;;;;;;;5049221;28;20095;-79
2022/08/24 11:01:14;;;;;;;0.50;0.50;;;;;;;;;;5068166;28;20044;-80
2022/08/24 11:03:49;;;;;;;0.60;0.60;;;;;;;;;;5068218;28;20024;-77
2022/08/24 11:06:16;;;;;;;0.52;0.52;;;;;;;;;;5067251;28;20472;-78
2022/08/24 11:08:50;;;;;;;0.60;0.60;;;;;;;;;;5067883;28;20035;-80
2022/08/24 11:11:22;;;;;;;0.50;0.50;;;;;;;;;;5068514;28;20082;-77
2022/08/24 11:13:49;;;;;;;0.70;0.70;;;;;;;;;;5086551;28;20020;-76
2022/08/24 11:16:21;;;;;;;0.32;0.32;;;;;;;;;;5069820;28;20042;-78
2022/08/24 11:18:48;;;;;;;0.40;0.40;;;;;;;;;;5068874;28;20032;-74
2022/08/24 11:21:32;;;;;;;5.57;1.45;;;;;;;;;;5069450;28;20135;-77
2022/08/24 11:24:06;;;;;;;0.50;0.50;;;;;;;;;;5070301;28;20064;-79
2022/08/24 11:26:43;;;;;;;0.77;0.77;;;;;;;;;;5069183;28;20024;-80
2022/08/24 11:29:08;;;;;;;0.73;0.73;;;;;;;;;;5053104;28;20073;-76
2022/08/24 11:31:38;;;;;;;0.50;0.50;;;;;;;;;;5071320;28;20032;-81
2022/08/24 11:34:06;;;;;;;1.08;1.00;;;;;;;;;;5053428;28;20047;-78
2022/08/24 11:36:33;;;;;;;0.93;0.70;;;;;;;;;;5051242;28;20494;-79
2022/08/24 11:39:14;;;;;;;0.40;0.40;;;;;;;;;;5069539;28;20051;-79
2022/08/24 11:41:49;;;;;;;1.73;0.95;;;;;;;;;;5059219;28;20059;-81
2022/08/24 11:44:33;;;;;;;0.95;0.80;;;;;;;;;;5031664;28;20484;-82
2022/08/24 11:47:02;;;;;;;1.27;1.17;;;;;;;;;;5031542;28;20017;-81
2022/08/24 11:49:27;;;;;;;;;;;;;;;;;;5028653;28;20021;-82
2022/08/24 11:51:59;;;;;;;1.40;0.80;;;;;;;;;;5031513;28;19913;-80
2022/08/24 11:54:27;;;;;;;0.50;0.50;;;;;;;;;;5047516;28;20063;-80
2022/08/24 11:57:04;;;;;;;1.08;0.68;;;;;;;;;;5049465;28;20040;-78
2022/08/24 11:59:29;;;;;;;0.40;0.40;;;;;;;;;;5031421;28;20036;-81
2022/08/24 12:01:57;;;;;;;0.65;0.65;;;;;;;;;;5048650;28;20040;-78
2022/08/24 12:04:46;;;;;;;0.40;0.40;;;;;;;;;;5031097;28;20037;-79
2022/08/24 12:07:11;;;;;;;;;;;;;;;;;;5019298;28;20091;-81
2022/08/24 12:10:06;;;;;;;0.63;0.63;;;;;;;;;;5051695;28;19908;-74
2022/08/24 12:12:44;;;;;;;13.68;1.23;;;;;;;;;;5029281;28;20087;-78
2022/08/24 12:15:23;;;;;;;1.67;1.02;;;;;;;;;;5051092;28;20086;-80
2022/08/24 12:17:59;;;;;;;0.60;0.60;;;;;;;;;;5050625;28;20702;-80
2022/08/24 12:20:30;;;;;;;0.50;0.50;;;;;;;;;;5017218;28;20037;-78
2022/08/24 12:22:59;;;;;;;1.05;0.95;;;;;;;;;;5051831;28;20039;-78
2022/08/24 12:28:11;;;;;;;0.40;0.40;;;;;;;;;;5035067;28;20468;-79
2022/08/24 12:30:37;;;;;;;0.60;0.52;;;;;;;;;;5034528;28;20127;-71
2022/08/24 12:33:05;;;;;;;1.10;1.00;;;;;;;;;;5053027;28;20104;-72
2022/08/24 12:35:31;;;;;;;;;;;;;;;;;;5053078;28;20476;-73
2022/08/24 12:37:59;;;;;;;0.98;0.80;;;;;;;;;;5050455;28;19962;-72
2022/08/24 12:40:28;;;;;;;0.70;0.70;;;;;;;;;;5049960;28;20422;-72
2022/08/24 12:42:57;;;;;;;0.35;0.35;;;;;;;;;;5051183;28;20024;-71
2022/08/24 12:45:23;;;;;;;0.50;0.50;;;;;;;;;;5050317;28;20033;-71
2022/08/24 12:47:53;;;;;;;2.92;1.20;;;;;;;;;;5050416;28;20053;-71
2022/08/24 12:50:41;;;;;;;0.75;0.70;;;;;;;;;;5050440;28;20043;-72
2022/08/24 12:53:15;;;;;;;0.95;0.70;;;;;;;;;;5052245;28;20028;-71
2022/08/24 12:55:46;;;;;;;0.60;0.60;;;;;;;;;;5052028;28;20056;-73
2022/08/24 12:58:22;;;;;;;0.50;0.50;;;;;;;;;;5052569;28;20036;-70
2022/08/24 13:00:49;;;;;;;1.48;0.52;;;;;;;;;;5035047;28;20048;-70
2022/08/24 13:03:34;;;;;;;0.75;0.75;;;;;;;;;;5051547;28;20075;-71
2022/08/24 13:06:03;;;;;;;1.50;0.77;;;;;;;;;;5052398;28;20031;-72
2022/08/24 13:08:40;;;;;;;0.80;0.70;;;;;;;;;;5034322;28;20025;-71
2022/08/24 13:11:30;;;;;;;0.98;0.70;;;;;;;;;;5053088;28;20098;-71
2022/08/24 13:13:56;;;;;;;0.50;0.50;;;;;;;;;;5052361;28;20028;-70
2022/08/24 13:16:40;;;;;;;0.80;0.77;;;;;;;;;;5052247;28;20032;-71
2022/08/24 13:19:11;;;;;;;1.45;1.20;;;;;;;;;;5048335;28;20037;-71
2022/08/24 13:21:39;;;;;;;0.85;0.68;;;;;;;;;;5050116;28;20037;-71
2022/08/24 13:24:23;;;;;;;0.40;0.40;;;;;;;;;;5034313;28;20067;-71
2022/08/24 13:26:49;;;;;;;0.50;0.50;;;;;;;;;;5050914;28;20025;-72
2022/08/24 13:29:15;;;;;;;0.50;0.50;;;;;;;;;;5052225;28;20032;-71
2022/08/24 13:31:47;;;;;;;1.63;0.73;;;;;;;;;;5051775;28;20020;-73
2022/08/24 13:34:13;;;;;;;0.77;0.77;;;;;;;;;;5051819;28;20123;-71
2022/08/24 13:36:40;;;;;;;0.73;0.73;;;;;;;;;;5051725;28;20053;-72
2022/08/24 13:39:18;;;;;;;0.70;0.70;;;;;;;;;;5051688;28;20032;-70
2022/08/24 13:41:54;;;;;;;0.68;0.65;;;;;;;;;;5052027;28;20048;-70
2022/08/24 13:44:22;;;;;;;1.38;0.70;;;;;;;;;;5052044;28;20040;-71
2022/08/24 13:46:59;;;;;;;1.00;0.80;;;;;;;;;;5051056;28;20075;-71
2022/08/24 13:49:43;;;;;;;0.75;0.73;;;;;;;;;;5051085;28;20118;-71
2022/08/24 13:52:15;;;;;;;0.80;0.80;;;;;;;;;;5051468;28;20515;-71
2022/08/24 13:54:44;;;;;;;0.60;0.60;;;;;;;;;;5051652;28;20025;-72
2022/08/24 13:57:13;;;;;;;0.63;0.63;;;;;;;;;;5032755;28;20025;-72
2022/08/24 14:00:11;;;;;;;1.10;1.00;;;;;;;;;;5050254;28;20048;-71
2022/08/24 14:02:39;;;;;;;1.27;0.90;;;;;;;;;;5025528;28;20068;-72
2022/08/24 14:05:23;;;;;;;0.50;0.50;;;;;;;;;;5051117;28;20082;-70
2022/08/24 14:08:04;;;;;;;1.92;1.13;;;;;;;;;;5034021;28;20056;-71
2022/08/24 14:10:49;;;;;;;0.47;0.47;;;;;;;;;;5050961;28;20040;-72
2022/08/24 14:13:14;;;;;;;0.68;0.68;;;;;;;;;;5039750;28;20542;-72
2022/08/24 14:18:51;;;;;;;0.50;0.50;;;;;;;;;;5041869;28;20029;-72
2022/08/24 14:21:19;;;;;;;0.55;0.55;;;;;;;;;;5046934;28;20044;-71
2022/08/24 14:23:50;;;;;;;1.33;1.00;;;;;;;;;;5033343;28;20040;-69
2022/08/24 14:26:40;;;;;;;0.70;0.70;;;;;;;;;;5031757;28;20357;-71
2022/08/24 14:29:14;;;;;;;1.17;0.82;;;;;;;;;;5050368;28;20052;-71
2022/08/24 14:31:52;;;;;;;0.90;0.90;;;;;;;;;;5042117;28;20052;-70
2022/08/24 14:34:27;;;;;;;0.52;0.52;;;;;;;;;;5050951;28;20104;-72
2022/08/24 14:37:01;;;;;;;0.43;0.43;;;;;;;;;;5050328;28;20427;-72
2022/08/24 14:39:36;;;;;;;1.00;0.73;;;;;;;;;;5049005;28;20064;-72
2022/08/24 14:42:15;;;;;;;1.02;0.85;;;;;;;;;;5049108;28;20056;-71
2022/08/24 14:44:55;;;;;;;1.90;0.95;;;;;;;;;;5050151;28;20573;-71
2022/08/24 14:47:39;;;;;;;0.73;0.68;;;;;;;;;;5030168;28;20029;-70
2022/08/24 14:50:09;;;;;;;0.60;0.60;;;;;;;;;;5030642;28;20044;-70
2022/08/24 14:52:34;;;;;;;1.75;0.73;;;;;;;;;;5012611;28;20060;-70
2022/08/24 14:55:10;;;;;;;1.33;1.08;;;;;;;;;;5033225;28;20507;-70
2022/08/24 14:57:43;;;;;;;0.95;0.80;;;;;;;;;;5036582;28;20029;-71
2022/08/24 15:00:14;;;;;;;1.38;1.00;;;;;;;;;;5032303;28;20093;-70
2022/08/24 15:02:58;;;;;;;6.28;1.08;;;;;;;;;;5049440;28;20060;-71
2022/08/24 15:05:30;;;;;;;1.10;0.82;;;;;;;;;;5050672;28;20041;-70
2022/08/24 15:07:58;;;;;;;0.68;0.68;;;;;;;;;;5049737;28;20100;-70
2022/08/24 15:10:28;;;;;;;1.50;0.93;;;;;;;;;;5032034;28;20389;-72
2022/08/24 15:13:01;;;;;;;1.23;1.05;;;;;;;;;;5050340;28;20021;-71
2022/08/24 15:15:38;;;;;;;0.88;0.45;;;;;;;;;;5050318;28;20414;-71
2022/08/24 15:18:06;;;;;;;0.70;0.68;;;;;;;;;;5049808;28;20112;-70
2022/08/24 15:20:34;;;;;;;2.42;1.83;;;;;;;;;;5049928;28;20032;-71
2022/08/24 15:23:04;;;;;;;0.65;0.60;;;;;;;;;;5049432;28;20554;-70